sensor_id;sensor_type;location;lat;lon;timestamp;P1;durP1;ratioP1;P2;durP2;ratioP2
51298;SDS011;37382;45.192;9.790;2022-08-19T11:37:49;7.05;;;3.97;;
51298;SDS011;37382;45.192;9.790;2022-08-19T11:40:17;5.22;;;3.17;;
51298;SDS011;37382;45.192;9.790;2022-08-19T11:42:45;5.35;;;3.00;;
51298;SDS011;37382;45.192;9.790;2022-08-19T11:45:25;3.00;;;2.70;;
51298;SDS011;37382;45.192;9.790;2022-08-19T11:47:55;3.00;;;2.00;;
51298;SDS011;37382;45.192;9.790;2022-08-19T11:50:23;5.30;;;2.05;;
51298;SDS011;37382;45.192;9.790;2022-08-19T11:52:55;4.30;;;2.05;;
51298;SDS011;37382;45.192;9.790;2022-08-19T11:55:23;5.30;;;2.60;;
51298;SDS011;37382;45.192;9.790;2022-08-19T11:57:51;3.35;;;1.90;;
51298;SDS011;37382;45.192;9.790;2022-08-19T13:53:16;3.00;;;0.75;;
51298;SDS011;37382;45.192;9.790;2022-08-19T13:55:44;1.75;;;0.70;;
51298;SDS011;37382;45.192;9.790;2022-08-19T13:58:12;4.38;;;0.60;;
51298;SDS011;37382;45.192;9.790;2022-08-19T14:00:42;3.35;;;0.55;;
51298;SDS011;37382;45.192;9.790;2022-08-19T14:03:11;3.25;;;0.90;;
51298;SDS011;37382;45.192;9.790;2022-08-19T14:05:38;2.78;;;0.70;;
51298;SDS011;37382;45.192;9.790;2022-08-19T14:08:06;1.48;;;0.57;;
51298;SDS011;37382;45.192;9.790;2022-08-19T14:10:34;5.57;;;0.77;;
51298;SDS011;37382;45.192;9.790;2022-08-19T14:13:02;2.00;;;0.80;;
51298;SDS011;37382;45.192;9.790;2022-08-19T14:15:30;4.20;;;0.90;;
51298;SDS011;37382;45.192;9.790;2022-08-19T14:17:58;4.78;;;0.88;;
51298;SDS011;37382;45.192;9.790;2022-08-19T14:20:25;2.20;;;0.75;;
51298;SDS011;37382;45.192;9.790;2022-08-19T14:22:53;2.67;;;0.60;;
51298;SDS011;37382;45.192;9.790;2022-08-19T14:25:23;2.90;;;1.15;;
51298;SDS011;37382;45.192;9.790;2022-08-19T14:27:52;1.77;;;0.70;;
51298;SDS011;37382;45.192;9.790;2022-08-19T14:30:24;1.48;;;0.88;;
51298;SDS011;37382;45.192;9.790;2022-08-19T14:32:55;2.75;;;1.00;;
51298;SDS011;37382;45.192;9.790;2022-08-19T16:02:54;4.85;;;1.00;;
51298;SDS011;37382;45.192;9.790;2022-08-19T16:05:48;8.52;;;1.00;;
51298;SDS011;37382;45.192;9.790;2022-08-19T16:08:41;3.55;;;0.88;;
51298;SDS011;37382;45.192;9.790;2022-08-19T16:11:16;3.55;;;1.00;;
51298;SDS011;37382;45.192;9.790;2022-08-19T16:13:47;2.17;;;0.90;;
51298;SDS011;37382;45.192;9.790;2022-08-19T16:16:21;3.58;;;1.10;;
51298;SDS011;37382;45.192;9.790;2022-08-19T16:18:57;4.57;;;1.23;;
51298;SDS011;37382;45.192;9.790;2022-08-19T16:21:27;5.38;;;1.02;;
51298;SDS011;37382;45.192;9.790;2022-08-19T16:24:01;3.95;;;0.90;;
51298;SDS011;37382;45.192;9.790;2022-08-19T16:26:31;7.07;;;1.00;;
51298;SDS011;37382;45.192;9.790;2022-08-19T16:41:21;5.25;;;1.10;;
51298;SDS011;37382;45.192;9.790;2022-08-19T16:43:49;6.80;;;0.95;;
51298;SDS011;37382;45.192;9.790;2022-08-19T16:46:19;7.82;;;1.10;;
51298;SDS011;37382;45.192;9.790;2022-08-19T16:48:48;2.20;;;0.95;;
51298;SDS011;37382;45.192;9.790;2022-08-19T16:51:16;2.63;;;0.95;;
51298;SDS011;37382;45.192;9.790;2022-08-19T16:53:44;4.38;;;1.10;;
